createdAt,value
2019-06-08T00:00:27.724Z,99635.72
2019-06-08T00:03:33.068Z,99629.36
2019-06-08T00:06:38.349Z,99624.91
2019-06-08T00:09:43.748Z,99629.72
2019-06-08T00:12:49.038Z,99626.80
2019-06-08T00:15:54.570Z,99623.27
2019-06-08T00:18:59.747Z,99632.89
2019-06-08T00:22:04.992Z,99646.73
2019-06-08T00:25:10.322Z,99655.33
2019-06-08T00:28:16.704Z,99652.74
2019-06-08T00:31:21.916Z,99639.36
2019-06-08T00:34:27.193Z,99646.98
2019-06-08T00:37:32.630Z,99635.94
2019-06-08T00:40:37.955Z,99638.55
2019-06-08T00:43:43.222Z,99647.80
2019-06-08T00:46:48.461Z,99658.42
2019-06-08T00:49:53.694Z,99646.88
2019-06-08T00:52:58.910Z,99642.28
2019-06-08T00:56:05.306Z,99647.94
2019-06-08T00:59:10.611Z,99658.50
2019-06-08T01:02:15.990Z,99678.39
2019-06-08T01:05:21.905Z,99672.98
2019-06-08T01:08:27.492Z,99665.58
2019-06-08T01:11:32.836Z,99659.32
2019-06-08T01:14:38.138Z,99674.23
2019-06-08T01:17:43.424Z,99690.59
2019-06-08T01:20:48.664Z,99698.70
2019-06-08T01:23:53.934Z,99714.78
2019-06-08T01:26:59.326Z,99702.04
2019-06-08T01:30:05.314Z,99692.36
2019-06-08T01:33:10.628Z,99713.16
2019-06-08T01:36:16.013Z,99711.42
2019-06-08T01:39:21.361Z,99709.90
2019-06-08T01:42:27.686Z,99718.40
2019-06-08T01:45:33.467Z,99705.78
2019-06-08T01:48:39.355Z,99717.05
2019-06-08T01:51:44.558Z,99714.95
2019-06-08T01:54:49.851Z,99723.05
2019-06-08T01:57:55.199Z,99725.80
2019-06-08T02:01:00.836Z,99723.20
2019-06-08T02:04:06.235Z,99718.25
2019-06-08T02:07:11.393Z,99711.78
2019-06-08T02:10:17.967Z,99713.16
2019-06-08T02:13:24.816Z,99714.59
2019-06-08T02:16:31.320Z,99714.34
2019-06-08T02:19:36.654Z,99728.16
2019-06-08T02:22:41.959Z,99731.30
2019-06-08T02:25:47.283Z,99758.55
2019-06-08T02:28:52.616Z,99763.72
2019-06-08T02:31:58.854Z,99774.52
2019-06-08T02:35:04.319Z,99756.61
2019-06-08T02:38:09.873Z,99750.00
2019-06-08T02:41:15.170Z,99757.89
2019-06-08T02:44:20.349Z,99776.59
2019-06-08T02:47:25.703Z,99772.89
2019-06-08T02:50:52.921Z,99784.16
2019-06-08T02:53:58.734Z,99770.06
2019-06-08T02:57:06.010Z,99771.09
2019-06-08T03:00:12.605Z,99766.60
2019-06-08T03:03:18.094Z,99762.02
2019-06-08T03:06:25.015Z,99744.07
2019-06-08T03:09:32.181Z,99758.50
2019-06-08T03:12:42.222Z,99764.97
2019-06-08T03:15:46.621Z,99784.77
2019-06-08T03:18:51.862Z,99769.82
2019-06-08T03:21:57.250Z,99778.44
2019-06-08T03:25:03.724Z,99756.31
2019-06-08T03:28:09.061Z,99802.70
2019-06-08T03:31:14.423Z,99789.80
2019-06-08T03:34:19.986Z,99797.30
2019-06-08T03:37:25.221Z,99824.17
2019-06-08T03:40:30.527Z,99831.00
2019-06-08T03:43:37.443Z,99810.76
2019-06-08T03:46:44.067Z,99799.25
2019-06-08T03:49:56.639Z,99804.95
2019-06-08T03:52:56.754Z,99810.87
2019-06-08T03:56:02.061Z,99818.26
2019-06-08T03:59:08.424Z,99833.11
2019-06-08T04:02:13.637Z,99832.08
2019-06-08T04:05:19.154Z,99841.53
2019-06-08T04:08:24.340Z,99862.39
2019-06-08T04:11:29.663Z,99847.70
2019-06-08T04:14:34.959Z,99834.52
2019-06-08T04:17:40.057Z,99846.84
2019-06-08T04:20:46.546Z,99847.97
2019-06-08T04:23:54.133Z,99859.64
2019-06-08T04:26:59.557Z,99869.45
2019-06-08T04:30:05.520Z,99855.20
2019-06-08T04:33:10.779Z,99870.92
2019-06-08T04:36:16.041Z,99869.21
2019-06-08T04:39:21.423Z,99887.55
2019-06-08T04:42:26.828Z,99903.66
2019-06-08T04:45:32.210Z,99902.59
2019-06-08T04:48:40.141Z,99907.11
2019-06-08T04:51:47.155Z,99893.43
2019-06-08T04:54:52.800Z,99914.27
2019-06-08T04:57:58.111Z,99921.28
2019-06-08T05:01:03.334Z,99921.53
2019-06-08T05:04:08.538Z,99926.88
2019-06-08T05:07:13.793Z,99928.55
2019-06-08T05:10:19.277Z,99935.39
2019-06-08T05:13:24.595Z,99942.38
2019-06-08T05:16:29.909Z,99934.36
2019-06-08T05:19:35.445Z,99940.13
2019-06-08T05:22:41.522Z,99937.20
2019-06-08T05:25:47.232Z,99945.08
2019-06-08T05:28:53.577Z,99950.20
2019-06-08T05:31:58.869Z,99955.45
2019-06-08T05:35:04.287Z,99953.34
2019-06-08T05:38:09.570Z,99962.00
2019-06-08T05:41:14.866Z,99973.92
2019-06-08T05:44:20.132Z,99970.52
2019-06-08T05:47:26.310Z,99975.44
2019-06-08T05:50:31.543Z,99969.33
2019-06-08T05:53:36.841Z,99979.50
2019-06-08T05:56:42.159Z,99969.05
2019-06-08T05:59:48.155Z,99965.77
2019-06-08T06:02:54.639Z,99977.77
2019-06-08T06:05:59.962Z,99989.22
2019-06-08T06:09:07.802Z,99997.12
2019-06-08T06:12:13.162Z,99997.80
2019-06-08T06:15:18.681Z,99993.39
2019-06-08T06:18:24.013Z,99990.23
2019-06-08T06:21:30.372Z,100007.55
2019-06-08T06:24:35.712Z,100013.63
2019-06-08T06:27:41.343Z,99999.05
2019-06-08T06:30:48.336Z,100011.80
2019-06-08T06:33:53.667Z,100025.03
2019-06-08T06:36:59.030Z,100021.10
2019-06-08T06:40:04.695Z,100017.80
2019-06-08T06:43:09.992Z,100019.17
2019-06-08T06:46:15.291Z,100021.64
2019-06-08T06:49:20.520Z,100024.49
2019-06-08T06:52:25.827Z,100028.03
2019-06-08T06:55:31.087Z,100022.98
2019-06-08T06:58:36.452Z,100036.20
2019-06-08T07:01:41.694Z,100048.56
2019-06-08T07:04:48.198Z,100051.16
2019-06-08T07:07:54.534Z,100049.09
2019-06-08T07:10:59.949Z,100052.77
2019-06-08T07:14:05.548Z,100050.34
2019-06-08T07:17:10.916Z,100061.23
2019-06-08T07:20:16.201Z,100057.69
2019-06-08T07:23:21.715Z,100059.85
2019-06-08T07:26:27.095Z,100063.70
2019-06-08T07:29:32.383Z,100077.66
2019-06-08T07:32:37.689Z,100067.14
2019-06-08T07:35:42.967Z,100078.13
2019-06-08T07:38:48.673Z,100093.12
2019-06-08T07:41:55.972Z,100099.73
2019-06-08T07:45:01.471Z,100109.00
2019-06-08T07:48:08.139Z,100093.11
2019-06-08T07:51:13.448Z,100100.55
2019-06-08T07:54:18.854Z,100097.00
2019-06-08T07:57:24.352Z,100103.85
2019-06-08T08:00:29.893Z,100119.54
2019-06-08T08:03:35.227Z,100120.46
2019-06-08T08:06:40.602Z,100119.26
2019-06-08T08:09:45.972Z,100123.23
2019-06-08T08:12:51.272Z,100130.74
2019-06-08T08:15:59.366Z,100133.53
2019-06-08T08:19:05.409Z,100135.20
2019-06-08T08:22:22.258Z,100139.75
2019-06-08T08:25:18.274Z,100143.81
2019-06-08T08:28:23.719Z,100145.73
2019-06-08T08:31:29.027Z,100137.43
2019-06-08T08:34:34.213Z,100147.01
2019-06-08T08:37:39.414Z,100144.05
2019-06-08T08:40:44.559Z,100137.48
2019-06-08T08:43:51.288Z,100151.73
2019-06-08T08:46:59.378Z,100147.34
2019-06-08T08:50:03.884Z,100150.52
2019-06-08T08:53:09.280Z,100157.19
2019-06-08T08:56:18.145Z,100157.19
2019-06-08T08:59:23.236Z,100162.69
2019-06-08T09:02:28.788Z,100147.45
2019-06-08T09:05:34.020Z,100165.27
2019-06-08T09:08:39.255Z,100171.55
2019-06-08T09:11:44.849Z,100167.12
2019-06-08T09:14:52.770Z,100163.58
2019-06-08T09:17:59.827Z,100159.36
2019-06-08T09:21:04.765Z,100161.14
2019-06-08T09:24:10.094Z,100167.27
2019-06-08T09:27:17.909Z,100163.70
2019-06-08T09:30:23.007Z,100170.36
2019-06-08T09:33:28.783Z,100170.36
2019-06-08T09:36:34.209Z,100183.92
2019-06-08T09:39:39.397Z,100183.92
2019-06-08T09:42:44.748Z,100187.81
2019-06-08T09:45:50.000Z,100193.66
2019-06-08T09:48:59.483Z,100200.85
2019-06-08T09:52:04.915Z,100198.42
2019-06-08T09:55:10.271Z,100198.38
2019-06-08T09:58:17.890Z,100189.09
2019-06-08T10:01:22.305Z,100195.61
2019-06-08T10:04:29.075Z,100191.57
2019-06-08T10:07:34.580Z,100194.48
2019-06-08T10:10:39.845Z,100196.24
2019-06-08T10:13:47.622Z,100202.83
2019-06-08T10:16:51.982Z,100204.71
2019-06-08T10:19:59.258Z,100204.79
2019-06-08T10:23:06.614Z,100196.69
2019-06-08T10:26:11.578Z,100186.99
2019-06-08T10:29:18.459Z,100187.56
2019-06-08T10:32:28.040Z,100203.76
2019-06-08T10:35:32.501Z,100198.34
2019-06-08T10:38:41.022Z,100208.98
2019-06-08T10:41:44.851Z,100196.23
2019-06-08T10:44:50.188Z,100186.42
2019-06-08T10:47:58.168Z,100182.31
2019-06-08T10:51:05.238Z,100194.08
2019-06-08T10:54:11.376Z,100195.12
2019-06-08T10:57:18.266Z,100192.09
2019-06-08T11:00:24.687Z,100216.39
2019-06-08T11:03:31.212Z,100201.58
2019-06-08T11:06:40.136Z,100200.77
2019-06-08T11:09:45.281Z,100194.23
2019-06-08T11:12:50.591Z,100192.87
2019-06-08T11:15:58.064Z,100200.58
2019-06-08T11:19:03.916Z,100200.54
2019-06-08T11:22:14.219Z,100202.16
2019-06-08T11:25:19.726Z,100196.59
2019-06-08T11:28:23.689Z,100211.86
2019-06-08T11:31:32.051Z,100208.48
2019-06-08T11:34:37.723Z,100210.21
2019-06-08T11:37:43.104Z,100204.58
2019-06-08T11:40:50.024Z,100208.21
2019-06-08T11:43:59.644Z,100212.44
2019-06-08T11:47:02.516Z,100206.39
2019-06-08T11:50:12.583Z,100207.43
2019-06-08T11:53:17.867Z,100217.30
2019-06-08T11:56:23.485Z,100226.89
2019-06-08T11:59:29.705Z,100215.41
2019-06-08T12:02:34.911Z,100230.08
2019-06-08T12:05:40.104Z,100218.69
2019-06-08T12:08:47.254Z,100222.23
2019-06-08T12:11:52.254Z,100225.80
2019-06-08T12:14:58.290Z,100237.14
2019-06-08T12:18:03.567Z,100233.41
2019-06-08T12:21:11.296Z,100226.63
2019-06-08T12:24:15.861Z,100234.05
2019-06-08T12:27:29.878Z,100232.13
2019-06-08T12:30:29.659Z,100223.69
2019-06-08T12:33:34.980Z,100223.05
2019-06-08T12:36:40.114Z,100225.83
2019-06-08T12:39:45.266Z,100218.91
2019-06-08T12:42:50.548Z,100240.33
2019-06-08T12:45:57.891Z,100239.37
2019-06-08T12:49:02.601Z,100233.92
2019-06-08T12:52:09.692Z,100235.16
2019-06-08T12:55:19.973Z,100236.70
2019-06-08T12:58:22.097Z,100228.03
2019-06-08T13:01:28.180Z,100232.36
2019-06-08T13:04:33.557Z,100234.80
2019-06-08T13:07:38.815Z,100235.39
2019-06-08T13:10:44.628Z,100232.02
2019-06-08T13:13:49.806Z,100233.22
2019-06-08T13:16:55.006Z,100244.45
2019-06-08T13:20:00.181Z,100242.86
2019-06-08T13:23:05.320Z,100237.72
2019-06-08T13:26:11.505Z,100236.92
2019-06-08T13:29:20.317Z,100243.34
2019-06-08T13:32:24.390Z,100241.17
2019-06-08T13:35:30.634Z,100237.46
2019-06-08T13:38:37.939Z,100249.25
2019-06-08T13:41:42.833Z,100237.44
2019-06-08T13:44:48.145Z,100246.38
2019-06-08T13:47:53.367Z,100248.16
2019-06-08T13:50:59.193Z,100246.34
2019-06-08T13:54:04.638Z,100252.67
2019-06-08T13:57:09.855Z,100259.80
2019-06-08T14:00:18.286Z,100240.09
2019-06-08T14:03:24.464Z,100241.35
2019-06-08T14:06:29.747Z,100235.47
2019-06-08T14:09:35.002Z,100243.59
2019-06-08T14:12:40.191Z,100246.88
2019-06-08T14:15:45.374Z,100236.67
2019-06-08T14:18:50.569Z,100246.11
2019-06-08T14:21:55.866Z,100248.58
2019-06-08T14:25:01.018Z,100236.28
2019-06-08T14:28:07.395Z,100229.12
2019-06-08T14:31:12.566Z,100230.58
2019-06-08T14:34:20.079Z,100237.66
2019-06-08T14:37:30.594Z,100242.83
2019-06-08T14:40:37.597Z,100238.30
2019-06-08T14:43:42.912Z,100237.33
2019-06-08T14:46:48.159Z,100233.75
2019-06-08T14:49:53.313Z,100249.35
2019-06-08T14:52:59.010Z,100234.17
2019-06-08T14:56:08.256Z,100237.49
2019-06-08T14:59:11.473Z,100249.86
2019-06-08T15:02:17.768Z,100249.70
2019-06-08T15:05:23.704Z,100247.45
2019-06-08T15:08:31.096Z,100239.97
2019-06-08T15:11:37.973Z,100242.94
2019-06-08T15:14:42.662Z,100251.80
2019-06-08T15:17:47.927Z,100254.31
2019-06-08T15:20:53.100Z,100256.50
2019-06-08T15:23:58.334Z,100247.75
2019-06-08T15:27:03.518Z,100249.94
2019-06-08T15:30:09.881Z,100241.97
2019-06-08T15:33:15.102Z,100248.50
2019-06-08T15:36:22.089Z,100241.20
2019-06-08T15:39:29.044Z,100246.06
2019-06-08T15:42:34.454Z,100220.92
2019-06-08T15:45:39.652Z,100230.78
2019-06-08T15:48:44.976Z,100237.37
2019-06-08T15:51:50.198Z,100223.37
2019-06-08T15:54:58.197Z,100218.59
2019-06-08T15:58:02.271Z,100218.00
2019-06-08T16:01:07.521Z,100219.77
2019-06-08T16:04:12.718Z,100222.02
2019-06-08T16:07:18.003Z,100226.39
2019-06-08T16:10:23.970Z,100228.51
2019-06-08T16:13:30.560Z,100227.37
2019-06-08T16:16:35.763Z,100230.43
2019-06-08T16:19:40.981Z,100223.89
2019-06-08T16:22:46.251Z,100225.52
2019-06-08T16:25:51.534Z,100225.31
2019-06-08T16:28:56.780Z,100220.86
2019-06-08T16:32:02.076Z,100220.64
2019-06-08T16:35:07.721Z,100214.30
2019-06-08T16:38:12.987Z,100214.84
2019-06-08T16:41:18.530Z,100215.66
2019-06-08T16:44:23.792Z,100214.11
2019-06-08T16:47:29.153Z,100219.10
2019-06-08T16:50:34.400Z,100219.20
2019-06-08T16:53:40.078Z,100223.41
2019-06-08T16:56:45.335Z,100216.39
2019-06-08T16:59:50.625Z,100228.70
2019-06-08T17:02:57.120Z,100229.12
2019-06-08T17:06:02.514Z,100229.86
2019-06-08T17:09:08.178Z,100238.79
2019-06-08T17:12:13.493Z,100230.94
2019-06-08T17:15:19.223Z,100240.45
2019-06-08T17:18:24.642Z,100239.82
2019-06-08T17:21:30.368Z,100232.19
2019-06-08T17:24:36.740Z,100237.70
2019-06-08T17:27:42.176Z,100236.02
2019-06-08T17:30:47.380Z,100230.57
2019-06-08T17:33:52.782Z,100235.27
2019-06-08T17:36:58.072Z,100239.27
2019-06-08T17:40:03.388Z,100235.61
2019-06-08T17:43:08.761Z,100239.64
2019-06-08T17:46:14.139Z,100236.59
2019-06-08T17:49:19.521Z,100245.35
2019-06-08T17:52:27.240Z,100242.96
2019-06-08T17:55:33.128Z,100239.81
2019-06-08T17:58:39.576Z,100243.00
2019-06-08T18:01:44.873Z,100232.41
2019-06-08T18:04:50.209Z,100229.63
2019-06-08T18:07:57.721Z,100231.70
2019-06-08T18:11:02.483Z,100230.97
2019-06-08T18:14:07.704Z,100227.12
2019-06-08T18:17:12.927Z,100226.81
2019-06-08T18:20:19.419Z,100234.59
2019-06-08T18:23:24.705Z,100227.09
2019-06-08T18:26:30.011Z,100234.61
2019-06-08T18:29:37.161Z,100232.46
2019-06-08T18:32:44.192Z,100230.50
2019-06-08T18:35:49.698Z,100231.66
2019-06-08T18:38:54.902Z,100240.34
2019-06-08T18:42:00.182Z,100233.65
2019-06-08T18:45:07.361Z,100235.78
2019-06-08T18:48:17.596Z,100233.08
2019-06-08T18:51:25.146Z,100241.31
2019-06-08T18:54:30.299Z,100244.59
2019-06-08T18:57:35.588Z,100257.06
2019-06-08T19:00:43.230Z,100248.09
2019-06-08T19:03:52.032Z,100250.87
2019-06-08T19:06:55.666Z,100257.44
2019-06-08T19:10:03.911Z,100267.77
2019-06-08T19:13:09.191Z,100263.41
2019-06-08T19:16:14.461Z,100267.55
2019-06-08T19:19:19.731Z,100271.33
2019-06-08T19:22:25.125Z,100272.24
2019-06-08T19:25:30.403Z,100270.82
2019-06-08T19:28:40.521Z,100269.98
2019-06-08T19:31:45.155Z,100279.27
2019-06-08T19:34:53.693Z,100280.72
2019-06-08T19:37:58.293Z,100283.78
2019-06-08T19:41:03.401Z,100291.96
2019-06-08T19:44:08.666Z,100291.56
2019-06-08T19:47:13.892Z,100303.64
2019-06-08T19:50:19.185Z,100315.83
2019-06-08T19:53:24.411Z,100319.45
2019-06-08T19:56:29.952Z,100318.08
2019-06-08T19:59:35.415Z,100314.70
2019-06-08T20:02:42.675Z,100323.81
2019-06-08T20:05:50.591Z,100330.05
2019-06-08T20:08:57.521Z,100337.90
2019-06-08T20:12:03.098Z,100339.49
2019-06-08T20:15:09.478Z,100335.28
2019-06-08T20:18:17.068Z,100343.84
2019-06-08T20:21:21.713Z,100339.70
2019-06-08T20:24:27.858Z,100345.78
2019-06-08T20:27:33.436Z,100354.60
2019-06-08T20:30:38.752Z,100349.32
2019-06-08T20:33:45.484Z,100348.31
2019-06-08T20:36:51.265Z,100352.94
2019-06-08T20:40:07.215Z,100346.05
2019-06-08T20:43:03.513Z,100348.16
2019-06-08T20:46:08.782Z,100348.64
2019-06-08T20:49:14.252Z,100356.16
2019-06-08T20:52:19.586Z,100350.74
2019-06-08T20:55:25.075Z,100358.69
2019-06-08T20:58:30.403Z,100368.45
2019-06-08T21:01:35.785Z,100365.73
2019-06-08T21:04:41.216Z,100367.81
2019-06-08T21:07:49.487Z,100371.16
2019-06-08T21:10:54.606Z,100375.50
2019-06-08T21:14:00.720Z,100383.63
2019-06-08T21:17:07.681Z,100380.70
2019-06-08T21:20:14.228Z,100386.09
2019-06-08T21:23:19.504Z,100380.70
2019-06-08T21:26:25.142Z,100388.36
2019-06-08T21:29:47.118Z,100382.52
2019-06-08T21:32:37.580Z,100386.86
2019-06-08T21:35:42.908Z,100379.81
2019-06-08T21:38:51.691Z,100383.11
2019-06-08T21:42:00.990Z,100381.46
2019-06-08T21:45:05.528Z,100384.94
2019-06-08T21:48:09.250Z,100379.33
2019-06-08T21:51:14.624Z,100379.73
2019-06-08T21:54:20.082Z,100384.06
2019-06-08T21:57:27.610Z,100385.66
2019-06-08T22:00:42.979Z,100392.45
2019-06-08T22:03:41.665Z,100390.74
2019-06-08T22:06:48.034Z,100403.52
2019-06-08T22:09:54.130Z,100401.20
2019-06-08T22:13:00.986Z,100400.24
2019-06-08T22:16:08.048Z,100402.53
2019-06-08T22:19:13.878Z,100394.77
2019-06-08T22:22:19.100Z,100393.97
2019-06-08T22:25:24.585Z,100401.05
2019-06-08T22:28:29.915Z,100397.70
2019-06-08T22:31:37.573Z,100408.48
2019-06-08T22:34:42.507Z,100410.30
2019-06-08T22:37:48.098Z,100419.58
2019-06-08T22:40:54.656Z,100412.83
2019-06-08T22:44:00.934Z,100418.36
2019-06-08T22:47:08.097Z,100419.47
2019-06-08T22:50:14.824Z,100426.86
2019-06-08T22:53:20.079Z,100418.90
2019-06-08T22:56:27.592Z,100420.05
2019-06-08T22:59:32.625Z,100423.06
2019-06-08T23:02:38.552Z,100422.48
2019-06-08T23:05:43.910Z,100429.80
2019-06-08T23:08:49.291Z,100424.91
2019-06-08T23:11:55.716Z,100424.81
2019-06-08T23:15:02.294Z,100427.24
2019-06-08T23:18:09.476Z,100429.94
2019-06-08T23:21:14.982Z,100424.94
2019-06-08T23:24:20.440Z,100427.98
2019-06-08T23:27:27.152Z,100420.56
2019-06-08T23:30:32.611Z,100431.85
2019-06-08T23:33:38.739Z,100421.09
2019-06-08T23:36:57.598Z,100421.28
2019-06-08T23:39:51.088Z,100423.34
2019-06-08T23:42:58.499Z,100410.28
2019-06-08T23:46:04.019Z,100408.09
2019-06-08T23:49:09.343Z,100411.05
2019-06-08T23:52:14.654Z,100410.78
2019-06-08T23:55:19.998Z,100410.94
2019-06-08T23:58:27.706Z,100411.49
